Midland, MI

10:47 PM EDT on September 27, 2016 (GMT -0400)
| | Change Station

Elev -9999 ft 0.00 °N, 0.00 °E | Updated

Cloudy
Cloudy
52 °F
Feels Like 52 °F
N
2
Wind Variable Wind from SSE
Gusts mph

Today
High -- | Low -- °F
--% Chance of Precip.
Yesterday
High -- | Low -- °F
Precip. -- in
Pressure 29.78 in
Visibility 10.0 miles
Clouds Mostly Cloudy 4100 ft
Mostly Cloudy 4900 ft
Overcast 5500 ft
Dew Point 48 °F
Humidity 86%
Rainfall --
Snow Depth Not available.
7:30 AM 7:24 PM
Waning Crescent, 8% visible
METAR KIKW 280233Z AUTO 18003KT 10SM BKN041 BKN049 OVC055 12/09 A2978 RMK AO2 T01220087
Pressure 29.78 in
Visibility 10.0 miles
Clouds Mostly Cloudy 4100 ft
Mostly Cloudy 4900 ft
Overcast 5500 ft
Dew Point 48 °F
Humidity 86%
Rainfall --
Snow Depth Not available.
7:30 AM 7:24 PM
Waning Crescent, 8% visible
METAR KIKW 280233Z AUTO 18003KT 10SM BKN041 BKN049 OVC055 12/09 A2978 RMK AO2 T01220087

10-Day Weather Forecast

Almanac

Astronomy

Sep. 27, 2016 Rise Set
Actual Time
Civil Twilight
Nautical Twilight
Astronomical Twilight
Moon
Length of Visible Light
Length of Day
Tomorrow will be .
, % of the Moon is Illuminated

Today's Extremes

State Highs State Lows

Community

WunderPhotos

Upload Photos

1,942,191 photos uploaded!

WunderBlog® & News

Nearby

Air Quality

  Air Quality AQ Index Pollutant
Not available.

Snow Depth

Station Depth Elevation

Earthquake Activity

City Distance Mag. Time & Date
Minimum magnitude displayed is 2.5.

Coastal Water Temperatures

Place Temperature

Stations

Nearby Weather Stations

Station Location Temp. Windchill Dew Point Humidity Wind Precip. Elev Updated Type
                   

Watches & Warnings

There are currently no watches in effect.